Terminal Aerodrome Forecast
Issued by NWS

Home | Current Version | Previous Version | Text Only | Print | Product List | Glossary Off
Versions: 1 2 3 4 5 6 7 8 9 10 11 12 13 14 15 16 17 18 19 20 21 22 23 24

000
FTUS43 KFGF 190900 AAB
TAFBJI
TAF AMD
KBJI 190953Z 1910/2006 VRB03KT 1SM BR OVC003
     FM191300 VRB03KT 2SM BR BKN003
     FM191600 VRB04KT P6SM BKN035
     FM200200 VRB03KT P6SM FEW035=

USA.gov is the U.S. government's official web portal to all federal, state and local government web resources and services.